Aérodrome :
LOGIN :

S'inscrire | Disclaimer

   EN    FR    IT 

 










Légende :    VFR   VFR Marginal   IFR   IFR Intensif   IFR Très Intensif
Visi : 
Plafond : 
>= 8 km
>= 3000ft
5 à 8 km
1000 à 3000 ft
1500m à 5 km
500 à 1000 ft
800 à 1500m
200 à 500 ft
< 800m
< 200 ft
Symboles :   Orages  Brouillard  Fortes neiges  Fortes précipitations  Vent > 20 kt
SIGMETs :   Divers  Orages  Givrage  Turbulence  Onde Orograph.  Cendres Volcan.







- Altitude de l'aérodrome : 586 ft
- Code IATA : IEV


UKKK - Zhuliany

DERNIER METAR :
  • 171100Z 12003MPS 090V150 CAVOK 22/11 Q1026 R08/70D NOSIG

METARs EXPIRÉS :
  • 171030Z 10002MPS 050V160 CAVOK 21/11 Q1026 R08/70D NOSIG
  • 171000Z 10002MPS 070V150 CAVOK 21/11 Q1027 R08/70D NOSIG
  • 170930Z 08003MPS 050V110 CAVOK 20/11 Q1027 R08/CLRD70 NOSIG
  • 170900Z 08002MPS 040V130 CAVOK 20/12 Q1027 R08/70D NOSIG
  • 170830Z 09002MPS 050V130 CAVOK 19/12 Q1027 R08/70D NOSIG

TAF TAF UKKK
Valide du 17 à 12h jusqu'au 18 à 12h UTC


171103Z 1712/1812 12003MPS 9999 SCT040
BECMG 1716/1718 3000 BR SCT010
TEMPO 1718/1807 0300 FG SCT002
BECMG 1807/1808 9999 NSW SCT030
Pas de NOTAMs connus pour ce terrain.



MET'MAP, la Météo Aéronautique d'un coup d'oeil ! - Copyright ORBIFLY Décembre 2007 - Disclaimer

ORBIFLY MET'MAP TEAM :

Programmation & Développement : Alexandra Zaïnal
Conception & Développement : Baudouin d'Aumeries
Co-Programmation & Développement : Marc-Olivier Méhu
Soutien technique & logistique : Manuel Goepfert

Contact : metmap@orbifly.com




SOURCES & CREDITS :

   NOAA